sensor_id;sensor_type;location;lat;lon;timestamp;P1;durP1;ratioP1;P2;durP2;ratioP2
68192;SDS011;55012;47.562;18.414;2023-04-06T00:01:32;16.17;;;8.10;;
68192;SDS011;55012;47.562;18.414;2023-04-06T00:03:58;17.63;;;8.60;;
68192;SDS011;55012;47.562;18.414;2023-04-06T00:06:24;16.75;;;8.32;;
68192;SDS011;55012;47.562;18.414;2023-04-06T00:08:50;17.70;;;8.38;;
68192;SDS011;55012;47.562;18.414;2023-04-06T00:11:15;15.98;;;8.27;;
68192;SDS011;55012;47.562;18.414;2023-04-06T00:13:41;15.18;;;7.60;;
68192;SDS011;55012;47.562;18.414;2023-04-06T00:16:07;18.42;;;9.05;;
68192;SDS011;55012;47.562;18.414;2023-04-06T00:18:33;17.42;;;8.50;;
68192;SDS011;55012;47.562;18.414;2023-04-06T00:20:58;15.38;;;7.75;;
68192;SDS011;55012;47.562;18.414;2023-04-06T00:23:27;15.40;;;8.15;;
68192;SDS011;55012;47.562;18.414;2023-04-06T00:25:52;13.57;;;7.50;;
68192;SDS011;55012;47.562;18.414;2023-04-06T00:28:18;17.85;;;8.38;;
68192;SDS011;55012;47.562;18.414;2023-04-06T00:30:50;17.90;;;8.50;;
68192;SDS011;55012;47.562;18.414;2023-04-06T00:33:17;15.00;;;7.88;;
68192;SDS011;55012;47.562;18.414;2023-04-06T00:35:42;13.52;;;7.15;;
68192;SDS011;55012;47.562;18.414;2023-04-06T00:38:08;15.15;;;8.10;;
68192;SDS011;55012;47.562;18.414;2023-04-06T00:40:33;16.23;;;7.60;;
68192;SDS011;55012;47.562;18.414;2023-04-06T00:43:00;18.38;;;7.97;;
68192;SDS011;55012;47.562;18.414;2023-04-06T00:45:25;15.23;;;7.80;;
68192;SDS011;55012;47.562;18.414;2023-04-06T00:47:51;18.38;;;8.80;;
68192;SDS011;55012;47.562;18.414;2023-04-06T00:50:16;15.18;;;7.90;;
68192;SDS011;55012;47.562;18.414;2023-04-06T00:52:42;17.63;;;9.55;;
68192;SDS011;55012;47.562;18.414;2023-04-06T00:55:08;15.48;;;7.82;;
68192;SDS011;55012;47.562;18.414;2023-04-06T00:57:33;18.30;;;8.00;;
68192;SDS011;55012;47.562;18.414;2023-04-06T00:59:59;16.05;;;7.55;;
68192;SDS011;55012;47.562;18.414;2023-04-06T01:02:25;16.27;;;7.35;;
68192;SDS011;55012;47.562;18.414;2023-04-06T01:04:51;17.02;;;8.30;;
68192;SDS011;55012;47.562;18.414;2023-04-06T01:07:17;17.00;;;8.13;;
68192;SDS011;55012;47.562;18.414;2023-04-06T01:09:43;15.68;;;7.93;;
68192;SDS011;55012;47.562;18.414;2023-04-06T01:12:08;16.00;;;7.95;;
68192;SDS011;55012;47.562;18.414;2023-04-06T01:14:34;17.88;;;8.20;;
68192;SDS011;55012;47.562;18.414;2023-04-06T01:17:00;15.40;;;7.95;;
68192;SDS011;55012;47.562;18.414;2023-04-06T01:19:25;13.43;;;7.43;;
68192;SDS011;55012;47.562;18.414;2023-04-06T01:21:51;14.05;;;7.22;;
68192;SDS011;55012;47.562;18.414;2023-04-06T01:24:18;14.73;;;7.47;;
68192;SDS011;55012;47.562;18.414;2023-04-06T01:26:44;15.77;;;8.20;;
68192;SDS011;55012;47.562;18.414;2023-04-06T01:29:10;13.70;;;7.60;;
68192;SDS011;55012;47.562;18.414;2023-04-06T01:31:36;16.40;;;7.78;;
68192;SDS011;55012;47.562;18.414;2023-04-06T01:34:02;14.63;;;7.00;;
68192;SDS011;55012;47.562;18.414;2023-04-06T01:36:28;15.38;;;8.02;;
68192;SDS011;55012;47.562;18.414;2023-04-06T01:38:53;16.35;;;7.60;;
68192;SDS011;55012;47.562;18.414;2023-04-06T01:41:19;14.45;;;7.68;;
68192;SDS011;55012;47.562;18.414;2023-04-06T01:43:45;13.40;;;7.10;;
68192;SDS011;55012;47.562;18.414;2023-04-06T01:46:12;16.17;;;7.63;;
68192;SDS011;55012;47.562;18.414;2023-04-06T01:48:37;16.77;;;7.47;;
68192;SDS011;55012;47.562;18.414;2023-04-06T01:51:03;17.15;;;7.88;;
68192;SDS011;55012;47.562;18.414;2023-04-06T01:53:28;15.00;;;7.97;;
68192;SDS011;55012;47.562;18.414;2023-04-06T01:55:54;16.52;;;8.15;;
68192;SDS011;55012;47.562;18.414;2023-04-06T01:58:19;15.82;;;7.90;;
68192;SDS011;55012;47.562;18.414;2023-04-06T02:00:45;17.65;;;8.65;;
68192;SDS011;55012;47.562;18.414;2023-04-06T02:03:10;24.58;;;8.43;;
68192;SDS011;55012;47.562;18.414;2023-04-06T02:05:36;15.35;;;8.38;;
68192;SDS011;55012;47.562;18.414;2023-04-06T02:08:05;17.75;;;9.13;;
68192;SDS011;55012;47.562;18.414;2023-04-06T02:10:31;16.95;;;8.10;;
68192;SDS011;55012;47.562;18.414;2023-04-06T02:12:57;16.83;;;8.20;;
68192;SDS011;55012;47.562;18.414;2023-04-06T02:15:23;17.10;;;7.55;;
68192;SDS011;55012;47.562;18.414;2023-04-06T02:17:49;18.60;;;8.40;;
68192;SDS011;55012;47.562;18.414;2023-04-06T02:20:14;15.88;;;8.02;;
68192;SDS011;55012;47.562;18.414;2023-04-06T02:22:40;14.65;;;8.13;;
68192;SDS011;55012;47.562;18.414;2023-04-06T02:25:05;16.55;;;7.50;;
68192;SDS011;55012;47.562;18.414;2023-04-06T02:27:31;17.73;;;8.60;;
68192;SDS011;55012;47.562;18.414;2023-04-06T02:29:56;17.92;;;8.25;;
68192;SDS011;55012;47.562;18.414;2023-04-06T02:32:22;13.98;;;7.68;;
68192;SDS011;55012;47.562;18.414;2023-04-06T02:34:47;19.55;;;8.70;;
68192;SDS011;55012;47.562;18.414;2023-04-06T02:37:13;18.13;;;9.10;;
68192;SDS011;55012;47.562;18.414;2023-04-06T02:39:38;21.60;;;9.23;;
68192;SDS011;55012;47.562;18.414;2023-04-06T02:42:04;19.35;;;9.25;;
68192;SDS011;55012;47.562;18.414;2023-04-06T02:44:29;16.25;;;8.40;;
68192;SDS011;55012;47.562;18.414;2023-04-06T02:46:55;22.73;;;8.95;;
68192;SDS011;55012;47.562;18.414;2023-04-06T02:49:20;15.85;;;8.15;;
68192;SDS011;55012;47.562;18.414;2023-04-06T02:51:46;18.65;;;9.27;;
68192;SDS011;55012;47.562;18.414;2023-04-06T02:54:11;14.77;;;7.88;;
68192;SDS011;55012;47.562;18.414;2023-04-06T02:56:37;19.08;;;9.15;;
68192;SDS011;55012;47.562;18.414;2023-04-06T02:59:02;17.30;;;8.80;;
68192;SDS011;55012;47.562;18.414;2023-04-06T03:01:28;16.65;;;8.27;;
68192;SDS011;55012;47.562;18.414;2023-04-06T03:03:53;17.20;;;8.55;;
68192;SDS011;55012;47.562;18.414;2023-04-06T03:06:18;21.55;;;9.65;;
68192;SDS011;55012;47.562;18.414;2023-04-06T03:08:44;18.50;;;9.23;;
68192;SDS011;55012;47.562;18.414;2023-04-06T03:11:10;17.50;;;8.00;;
68192;SDS011;55012;47.562;18.414;2023-04-06T03:13:36;18.63;;;8.50;;
68192;SDS011;55012;47.562;18.414;2023-04-06T03:16:03;17.35;;;8.70;;
68192;SDS011;55012;47.562;18.414;2023-04-06T03:18:29;18.95;;;8.63;;
68192;SDS011;55012;47.562;18.414;2023-04-06T03:20:55;14.85;;;8.18;;
68192;SDS011;55012;47.562;18.414;2023-04-06T03:23:20;15.15;;;7.70;;
68192;SDS011;55012;47.562;18.414;2023-04-06T03:25:46;16.83;;;8.07;;
68192;SDS011;55012;47.562;18.414;2023-04-06T03:28:12;16.55;;;8.57;;
68192;SDS011;55012;47.562;18.414;2023-04-06T03:30:37;18.02;;;8.60;;
68192;SDS011;55012;47.562;18.414;2023-04-06T03:33:03;22.55;;;8.90;;
68192;SDS011;55012;47.562;18.414;2023-04-06T03:35:28;16.95;;;8.43;;
68192;SDS011;55012;47.562;18.414;2023-04-06T03:37:54;15.90;;;8.00;;
68192;SDS011;55012;47.562;18.414;2023-04-06T03:40:20;20.00;;;8.98;;
68192;SDS011;55012;47.562;18.414;2023-04-06T03:42:45;17.67;;;8.20;;
68192;SDS011;55012;47.562;18.414;2023-04-06T03:45:11;17.05;;;7.50;;
68192;SDS011;55012;47.562;18.414;2023-04-06T03:47:38;16.40;;;8.10;;
68192;SDS011;55012;47.562;18.414;2023-04-06T03:50:03;16.63;;;8.32;;
68192;SDS011;55012;47.562;18.414;2023-04-06T03:52:29;16.70;;;7.95;;
68192;SDS011;55012;47.562;18.414;2023-04-06T03:54:55;15.93;;;8.30;;
68192;SDS011;55012;47.562;18.414;2023-04-06T03:57:20;18.58;;;8.75;;
68192;SDS011;55012;47.562;18.414;2023-04-06T03:59:46;21.25;;;8.65;;
68192;SDS011;55012;47.562;18.414;2023-04-06T04:02:11;16.25;;;8.02;;
68192;SDS011;55012;47.562;18.414;2023-04-06T04:04:37;18.40;;;8.63;;
68192;SDS011;55012;47.562;18.414;2023-04-06T04:07:03;17.45;;;8.30;;
68192;SDS011;55012;47.562;18.414;2023-04-06T04:09:28;21.58;;;8.73;;
68192;SDS011;55012;47.562;18.414;2023-04-06T04:11:54;23.25;;;9.55;;
68192;SDS011;55012;47.562;18.414;2023-04-06T04:14:19;21.05;;;9.88;;
68192;SDS011;55012;47.562;18.414;2023-04-06T04:16:45;19.30;;;9.13;;
68192;SDS011;55012;47.562;18.414;2023-04-06T04:19:10;20.00;;;8.82;;
68192;SDS011;55012;47.562;18.414;2023-04-06T04:21:42;16.77;;;8.70;;
68192;SDS011;55012;47.562;18.414;2023-04-06T04:24:11;25.23;;;9.40;;
68192;SDS011;55012;47.562;18.414;2023-04-06T04:26:37;23.55;;;10.20;;
68192;SDS011;55012;47.562;18.414;2023-04-06T04:29:03;18.35;;;9.15;;
68192;SDS011;55012;47.562;18.414;2023-04-06T04:31:28;18.35;;;9.50;;
68192;SDS011;55012;47.562;18.414;2023-04-06T04:33:54;19.02;;;9.18;;
68192;SDS011;55012;47.562;18.414;2023-04-06T04:36:19;18.08;;;8.70;;
68192;SDS011;55012;47.562;18.414;2023-04-06T04:38:45;20.27;;;9.05;;
68192;SDS011;55012;47.562;18.414;2023-04-06T04:41:10;17.88;;;8.43;;
68192;SDS011;55012;47.562;18.414;2023-04-06T04:43:36;20.45;;;9.55;;
68192;SDS011;55012;47.562;18.414;2023-04-06T04:46:01;16.77;;;8.38;;
68192;SDS011;55012;47.562;18.414;2023-04-06T04:48:27;20.23;;;9.13;;
68192;SDS011;55012;47.562;18.414;2023-04-06T04:50:52;22.90;;;9.82;;
68192;SDS011;55012;47.562;18.414;2023-04-06T04:53:20;21.52;;;9.93;;
68192;SDS011;55012;47.562;18.414;2023-04-06T04:55:45;22.45;;;10.35;;
68192;SDS011;55012;47.562;18.414;2023-04-06T04:58:11;20.38;;;8.63;;
68192;SDS011;55012;47.562;18.414;2023-04-06T05:00:40;20.90;;;9.18;;
68192;SDS011;55012;47.562;18.414;2023-04-06T05:03:05;23.88;;;9.95;;
68192;SDS011;55012;47.562;18.414;2023-04-06T05:05:32;18.38;;;8.77;;
68192;SDS011;55012;47.562;18.414;2023-04-06T05:07:57;17.10;;;8.48;;
68192;SDS011;55012;47.562;18.414;2023-04-06T05:10:22;19.08;;;9.20;;
68192;SDS011;55012;47.562;18.414;2023-04-06T05:12:48;22.45;;;10.20;;
68192;SDS011;55012;47.562;18.414;2023-04-06T05:15:13;22.50;;;9.98;;
68192;SDS011;55012;47.562;18.414;2023-04-06T05:17:39;21.08;;;9.60;;
68192;SDS011;55012;47.562;18.414;2023-04-06T05:20:06;25.58;;;9.63;;
68192;SDS011;55012;47.562;18.414;2023-04-06T05:22:32;20.80;;;8.73;;
68192;SDS011;55012;47.562;18.414;2023-04-06T05:24:57;18.13;;;7.65;;
68192;SDS011;55012;47.562;18.414;2023-04-06T05:27:23;19.50;;;9.25;;
68192;SDS011;55012;47.562;18.414;2023-04-06T05:29:48;23.38;;;8.65;;
68192;SDS011;55012;47.562;18.414;2023-04-06T05:32:14;23.27;;;9.63;;
68192;SDS011;55012;47.562;18.414;2023-04-06T05:34:39;22.70;;;11.43;;
68192;SDS011;55012;47.562;18.414;2023-04-06T05:37:05;20.35;;;9.43;;
68192;SDS011;55012;47.562;18.414;2023-04-06T05:39:30;19.45;;;10.38;;
68192;SDS011;55012;47.562;18.414;2023-04-06T05:41:56;22.98;;;10.30;;
68192;SDS011;55012;47.562;18.414;2023-04-06T05:44:21;15.13;;;7.57;;
68192;SDS011;55012;47.562;18.414;2023-04-06T05:46:47;21.42;;;10.40;;
68192;SDS011;55012;47.562;18.414;2023-04-06T05:49:12;21.67;;;10.05;;
68192;SDS011;55012;47.562;18.414;2023-04-06T05:51:38;24.05;;;10.18;;
68192;SDS011;55012;47.562;18.414;2023-04-06T05:54:03;22.52;;;10.13;;
68192;SDS011;55012;47.562;18.414;2023-04-06T05:56:29;17.25;;;8.38;;
68192;SDS011;55012;47.562;18.414;2023-04-06T05:58:55;24.02;;;10.88;;
68192;SDS011;55012;47.562;18.414;2023-04-06T06:01:20;20.25;;;9.93;;
68192;SDS011;55012;47.562;18.414;2023-04-06T06:03:46;23.65;;;10.23;;
68192;SDS011;55012;47.562;18.414;2023-04-06T06:06:11;20.13;;;9.65;;
68192;SDS011;55012;47.562;18.414;2023-04-06T06:08:37;23.67;;;10.77;;
68192;SDS011;55012;47.562;18.414;2023-04-06T06:11:02;22.90;;;10.65;;
68192;SDS011;55012;47.562;18.414;2023-04-06T06:13:28;28.23;;;10.88;;
68192;SDS011;55012;47.562;18.414;2023-04-06T06:15:53;26.85;;;11.52;;
68192;SDS011;55012;47.562;18.414;2023-04-06T06:18:19;21.92;;;11.32;;
68192;SDS011;55012;47.562;18.414;2023-04-06T06:20:44;26.60;;;11.02;;
68192;SDS011;55012;47.562;18.414;2023-04-06T06:23:10;28.52;;;11.43;;
68192;SDS011;55012;47.562;18.414;2023-04-06T06:25:36;25.02;;;11.52;;
68192;SDS011;55012;47.562;18.414;2023-04-06T06:28:02;26.40;;;10.40;;
68192;SDS011;55012;47.562;18.414;2023-04-06T06:30:27;21.85;;;10.00;;
68192;SDS011;55012;47.562;18.414;2023-04-06T06:32:53;23.77;;;11.00;;
68192;SDS011;55012;47.562;18.414;2023-04-06T06:35:18;22.92;;;10.82;;
68192;SDS011;55012;47.562;18.414;2023-04-06T06:37:44;27.30;;;11.48;;
68192;SDS011;55012;47.562;18.414;2023-04-06T06:40:09;24.77;;;11.13;;
68192;SDS011;55012;47.562;18.414;2023-04-06T06:42:38;24.55;;;11.18;;
68192;SDS011;55012;47.562;18.414;2023-04-06T06:45:04;22.15;;;11.25;;
68192;SDS011;55012;47.562;18.414;2023-04-06T06:47:30;25.92;;;11.80;;
68192;SDS011;55012;47.562;18.414;2023-04-06T06:49:55;25.00;;;11.70;;
68192;SDS011;55012;47.562;18.414;2023-04-06T06:52:21;29.92;;;14.02;;
68192;SDS011;55012;47.562;18.414;2023-04-06T06:54:48;22.67;;;11.68;;
68192;SDS011;55012;47.562;18.414;2023-04-06T06:57:13;26.80;;;11.70;;
68192;SDS011;55012;47.562;18.414;2023-04-06T06:59:39;24.52;;;10.85;;
68192;SDS011;55012;47.562;18.414;2023-04-06T07:02:04;21.65;;;9.27;;
68192;SDS011;55012;47.562;18.414;2023-04-06T07:04:30;24.05;;;12.30;;
68192;SDS011;55012;47.562;18.414;2023-04-06T07:06:55;27.67;;;12.07;;
68192;SDS011;55012;47.562;18.414;2023-04-06T07:09:21;27.08;;;12.43;;
68192;SDS011;55012;47.562;18.414;2023-04-06T07:11:46;25.40;;;11.68;;
68192;SDS011;55012;47.562;18.414;2023-04-06T07:14:14;28.65;;;11.80;;
68192;SDS011;55012;47.562;18.414;2023-04-06T07:16:40;27.67;;;12.40;;
68192;SDS011;55012;47.562;18.414;2023-04-06T07:19:06;27.65;;;12.85;;
68192;SDS011;55012;47.562;18.414;2023-04-06T07:21:31;24.77;;;11.88;;
68192;SDS011;55012;47.562;18.414;2023-04-06T07:23:57;24.48;;;12.10;;
68192;SDS011;55012;47.562;18.414;2023-04-06T07:26:22;26.67;;;12.50;;
68192;SDS011;55012;47.562;18.414;2023-04-06T07:28:48;29.13;;;13.25;;
68192;SDS011;55012;47.562;18.414;2023-04-06T07:31:15;29.73;;;13.43;;
68192;SDS011;55012;47.562;18.414;2023-04-06T07:33:41;25.63;;;13.05;;
68192;SDS011;55012;47.562;18.414;2023-04-06T07:36:06;26.33;;;13.20;;
68192;SDS011;55012;47.562;18.414;2023-04-06T07:38:32;30.20;;;13.57;;
68192;SDS011;55012;47.562;18.414;2023-04-06T07:40:57;29.00;;;13.60;;
68192;SDS011;55012;47.562;18.414;2023-04-06T07:43:23;28.30;;;13.38;;
68192;SDS011;55012;47.562;18.414;2023-04-06T07:45:48;28.00;;;13.15;;
68192;SDS011;55012;47.562;18.414;2023-04-06T07:48:14;23.92;;;12.82;;
68192;SDS011;55012;47.562;18.414;2023-04-06T07:50:39;27.17;;;13.85;;
68192;SDS011;55012;47.562;18.414;2023-04-06T07:53:05;29.13;;;12.65;;
68192;SDS011;55012;47.562;18.414;2023-04-06T07:55:30;29.52;;;13.55;;
68192;SDS011;55012;47.562;18.414;2023-04-06T07:57:56;27.60;;;13.85;;
68192;SDS011;55012;47.562;18.414;2023-04-06T08:00:21;28.02;;;12.48;;
68192;SDS011;55012;47.562;18.414;2023-04-06T08:02:47;20.40;;;11.00;;
68192;SDS011;55012;47.562;18.414;2023-04-06T08:05:12;17.85;;;8.48;;
68192;SDS011;55012;47.562;18.414;2023-04-06T08:07:38;19.35;;;10.30;;
68192;SDS011;55012;47.562;18.414;2023-04-06T08:10:04;18.83;;;9.27;;
68192;SDS011;55012;47.562;18.414;2023-04-06T08:12:29;21.52;;;10.02;;
68192;SDS011;55012;47.562;18.414;2023-04-06T08:14:55;16.45;;;9.13;;
68192;SDS011;55012;47.562;18.414;2023-04-06T08:17:21;19.05;;;8.90;;
68192;SDS011;55012;47.562;18.414;2023-04-06T08:19:47;19.33;;;9.95;;
68192;SDS011;55012;47.562;18.414;2023-04-06T08:22:12;19.25;;;9.35;;
68192;SDS011;55012;47.562;18.414;2023-04-06T08:24:38;17.65;;;8.82;;
68192;SDS011;55012;47.562;18.414;2023-04-06T08:27:04;19.08;;;8.18;;
68192;SDS011;55012;47.562;18.414;2023-04-06T08:29:29;15.95;;;8.10;;
68192;SDS011;55012;47.562;18.414;2023-04-06T08:31:55;21.42;;;8.90;;
68192;SDS011;55012;47.562;18.414;2023-04-06T08:34:21;18.38;;;8.13;;
68192;SDS011;55012;47.562;18.414;2023-04-06T08:36:46;17.25;;;8.90;;
68192;SDS011;55012;47.562;18.414;2023-04-06T08:39:12;17.85;;;9.10;;
68192;SDS011;55012;47.562;18.414;2023-04-06T08:41:38;18.13;;;8.15;;
68192;SDS011;55012;47.562;18.414;2023-04-06T08:44:06;16.52;;;8.48;;
68192;SDS011;55012;47.562;18.414;2023-04-06T08:46:31;18.38;;;9.15;;
68192;SDS011;55012;47.562;18.414;2023-04-06T08:48:58;17.98;;;9.50;;
68192;SDS011;55012;47.562;18.414;2023-04-06T08:51:25;23.30;;;9.60;;
68192;SDS011;55012;47.562;18.414;2023-04-06T08:53:54;19.70;;;9.32;;
68192;SDS011;55012;47.562;18.414;2023-04-06T08:56:24;21.92;;;9.30;;
68192;SDS011;55012;47.562;18.414;2023-04-06T08:58:52;18.80;;;9.48;;
68192;SDS011;55012;47.562;18.414;2023-04-06T09:01:20;16.88;;;9.50;;
68192;SDS011;55012;47.562;18.414;2023-04-06T09:03:49;15.77;;;8.50;;
68192;SDS011;55012;47.562;18.414;2023-04-06T09:06:15;16.25;;;8.07;;
68192;SDS011;55012;47.562;18.414;2023-04-06T09:08:42;15.50;;;8.05;;
68192;SDS011;55012;47.562;18.414;2023-04-06T09:11:07;16.30;;;7.60;;
68192;SDS011;55012;47.562;18.414;2023-04-06T09:16:15;15.25;;;7.07;;
68192;SDS011;55012;47.562;18.414;2023-04-06T09:18:41;13.65;;;6.32;;
68192;SDS011;55012;47.562;18.414;2023-04-06T09:21:07;14.00;;;7.32;;
68192;SDS011;55012;47.562;18.414;2023-04-06T09:23:34;14.73;;;6.65;;
68192;SDS011;55012;47.562;18.414;2023-04-06T09:26:09;13.27;;;7.43;;
68192;SDS011;55012;47.562;18.414;2023-04-06T09:28:55;13.32;;;6.70;;
68192;SDS011;55012;47.562;18.414;2023-04-06T09:31:22;17.23;;;7.88;;
68192;SDS011;55012;47.562;18.414;2023-04-06T09:33:57;16.90;;;8.00;;
68192;SDS011;55012;47.562;18.414;2023-04-06T09:36:33;18.85;;;8.07;;
68192;SDS011;55012;47.562;18.414;2023-04-06T09:39:01;14.00;;;6.55;;
68192;SDS011;55012;47.562;18.414;2023-04-06T09:41:28;14.00;;;7.38;;
68192;SDS011;55012;47.562;18.414;2023-04-06T09:44:05;13.93;;;7.25;;
68192;SDS011;55012;47.562;18.414;2023-04-06T09:46:38;14.68;;;7.07;;
68192;SDS011;55012;47.562;18.414;2023-04-06T09:49:07;15.10;;;7.72;;
68192;SDS011;55012;47.562;18.414;2023-04-06T09:51:37;14.77;;;7.82;;
68192;SDS011;55012;47.562;18.414;2023-04-06T09:54:04;16.30;;;7.53;;
68192;SDS011;55012;47.562;18.414;2023-04-06T09:56:34;17.45;;;8.88;;
68192;SDS011;55012;47.562;18.414;2023-04-06T09:59:18;15.20;;;6.97;;
68192;SDS011;55012;47.562;18.414;2023-04-06T10:01:51;13.50;;;7.03;;
68192;SDS011;55012;47.562;18.414;2023-04-06T10:04:36;18.25;;;7.22;;
68192;SDS011;55012;47.562;18.414;2023-04-06T10:07:08;13.80;;;7.53;;
68192;SDS011;55012;47.562;18.414;2023-04-06T10:09:37;14.45;;;7.55;;
68192;SDS011;55012;47.562;18.414;2023-04-06T10:12:03;16.00;;;7.35;;
68192;SDS011;55012;47.562;18.414;2023-04-06T10:14:32;13.98;;;7.90;;
68192;SDS011;55012;47.562;18.414;2023-04-06T10:17:00;12.98;;;7.80;;
68192;SDS011;55012;47.562;18.414;2023-04-06T10:19:28;13.10;;;6.82;;
68192;SDS011;55012;47.562;18.414;2023-04-06T10:21:59;13.88;;;7.38;;
68192;SDS011;55012;47.562;18.414;2023-04-06T10:24:27;16.25;;;8.20;;
68192;SDS011;55012;47.562;18.414;2023-04-06T10:27:00;15.77;;;7.03;;
68192;SDS011;55012;47.562;18.414;2023-04-06T10:29:27;16.45;;;7.65;;
68192;SDS011;55012;47.562;18.414;2023-04-06T10:31:52;17.08;;;8.48;;
68192;SDS011;55012;47.562;18.414;2023-04-06T10:34:18;14.95;;;7.28;;
68192;SDS011;55012;47.562;18.414;2023-04-06T10:36:43;19.00;;;8.30;;
68192;SDS011;55012;47.562;18.414;2023-04-06T10:39:09;16.00;;;8.82;;
68192;SDS011;55012;47.562;18.414;2023-04-06T10:41:45;16.05;;;8.15;;
68192;SDS011;55012;47.562;18.414;2023-04-06T10:44:22;21.92;;;8.98;;
68192;SDS011;55012;47.562;18.414;2023-04-06T10:46:52;15.20;;;8.20;;
68192;SDS011;55012;47.562;18.414;2023-04-06T10:49:19;14.65;;;6.82;;
68192;SDS011;55012;47.562;18.414;2023-04-06T10:51:45;16.50;;;7.82;;
68192;SDS011;55012;47.562;18.414;2023-04-06T10:54:17;17.70;;;7.72;;
68192;SDS011;55012;47.562;18.414;2023-04-06T10:56:43;15.48;;;8.00;;
68192;SDS011;55012;47.562;18.414;2023-04-06T10:59:09;16.52;;;9.35;;
68192;SDS011;55012;47.562;18.414;2023-04-06T11:01:34;20.67;;;8.73;;
68192;SDS011;55012;47.562;18.414;2023-04-06T11:03:59;19.90;;;9.73;;
68192;SDS011;55012;47.562;18.414;2023-04-06T11:06:26;21.90;;;9.80;;
68192;SDS011;55012;47.562;18.414;2023-04-06T11:08:54;16.45;;;9.25;;
68192;SDS011;55012;47.562;18.414;2023-04-06T11:11:20;17.63;;;8.13;;
68192;SDS011;55012;47.562;18.414;2023-04-06T11:16:16;22.52;;;9.88;;
68192;SDS011;55012;47.562;18.414;2023-04-06T11:18:55;21.63;;;10.02;;
68192;SDS011;55012;47.562;18.414;2023-04-06T11:21:32;24.23;;;11.05;;
68192;SDS011;55012;47.562;18.414;2023-04-06T11:26:45;20.23;;;10.68;;
68192;SDS011;55012;47.562;18.414;2023-04-06T11:29:19;20.60;;;10.80;;
68192;SDS011;55012;47.562;18.414;2023-04-06T11:31:47;24.45;;;10.07;;
68192;SDS011;55012;47.562;18.414;2023-04-06T11:34:21;21.88;;;10.80;;
68192;SDS011;55012;47.562;18.414;2023-04-06T11:36:48;20.45;;;10.57;;
68192;SDS011;55012;47.562;18.414;2023-04-06T11:39:22;20.10;;;10.98;;
68192;SDS011;55012;47.562;18.414;2023-04-06T11:42:06;21.05;;;11.02;;
68192;SDS011;55012;47.562;18.414;2023-04-06T11:44:33;23.00;;;11.30;;
68192;SDS011;55012;47.562;18.414;2023-04-06T11:47:02;22.08;;;11.32;;
68192;SDS011;55012;47.562;18.414;2023-04-06T11:49:29;22.80;;;11.05;;
68192;SDS011;55012;47.562;18.414;2023-04-06T11:51:56;22.92;;;12.10;;
68192;SDS011;55012;47.562;18.414;2023-04-06T11:54:36;19.42;;;9.82;;
68192;SDS011;55012;47.562;18.414;2023-04-06T11:57:05;20.60;;;10.50;;
68192;SDS011;55012;47.562;18.414;2023-04-06T11:59:31;20.05;;;10.13;;
68192;SDS011;55012;47.562;18.414;2023-04-06T12:01:57;19.55;;;10.15;;
68192;SDS011;55012;47.562;18.414;2023-04-06T12:04:23;18.23;;;10.05;;
68192;SDS011;55012;47.562;18.414;2023-04-06T12:06:49;19.83;;;10.35;;
68192;SDS011;55012;47.562;18.414;2023-04-06T12:09:15;23.25;;;10.18;;
68192;SDS011;55012;47.562;18.414;2023-04-06T12:11:42;17.70;;;10.23;;
68192;SDS011;55012;47.562;18.414;2023-04-06T12:14:08;18.58;;;9.60;;
68192;SDS011;55012;47.562;18.414;2023-04-06T12:16:33;18.02;;;9.23;;
68192;SDS011;55012;47.562;18.414;2023-04-06T12:19:00;17.38;;;10.32;;
68192;SDS011;55012;47.562;18.414;2023-04-06T12:21:35;20.77;;;10.50;;
68192;SDS011;55012;47.562;18.414;2023-04-06T12:24:02;17.70;;;9.73;;
68192;SDS011;55012;47.562;18.414;2023-04-06T12:26:29;18.98;;;10.13;;
68192;SDS011;55012;47.562;18.414;2023-04-06T12:28:55;19.63;;;8.63;;
68192;SDS011;55012;47.562;18.414;2023-04-06T12:31:21;20.08;;;9.95;;
68192;SDS011;55012;47.562;18.414;2023-04-06T12:33:48;21.80;;;10.05;;
68192;SDS011;55012;47.562;18.414;2023-04-06T12:36:14;20.17;;;10.35;;
68192;SDS011;55012;47.562;18.414;2023-04-06T12:38:41;21.92;;;10.40;;
68192;SDS011;55012;47.562;18.414;2023-04-06T12:41:07;19.05;;;9.73;;
68192;SDS011;55012;47.562;18.414;2023-04-06T12:43:32;18.55;;;8.98;;
68192;SDS011;55012;47.562;18.414;2023-04-06T12:45:58;20.08;;;10.10;;
68192;SDS011;55012;47.562;18.414;2023-04-06T12:48:25;19.17;;;10.80;;
68192;SDS011;55012;47.562;18.414;2023-04-06T12:50:57;21.63;;;10.48;;
68192;SDS011;55012;47.562;18.414;2023-04-06T12:53:24;18.27;;;10.55;;
68192;SDS011;55012;47.562;18.414;2023-04-06T12:55:50;17.77;;;9.93;;
68192;SDS011;55012;47.562;18.414;2023-04-06T12:58:16;19.63;;;10.35;;
68192;SDS011;55012;47.562;18.414;2023-04-06T13:00:42;18.40;;;9.43;;
68192;SDS011;55012;47.562;18.414;2023-04-06T13:03:08;18.42;;;9.38;;
68192;SDS011;55012;47.562;18.414;2023-04-06T13:05:33;20.58;;;9.38;;
68192;SDS011;55012;47.562;18.414;2023-04-06T13:07:59;19.85;;;9.82;;
68192;SDS011;55012;47.562;18.414;2023-04-06T13:10:24;21.08;;;9.57;;
68192;SDS011;55012;47.562;18.414;2023-04-06T13:12:50;17.45;;;9.20;;
68192;SDS011;55012;47.562;18.414;2023-04-06T13:15:16;17.48;;;9.10;;
68192;SDS011;55012;47.562;18.414;2023-04-06T13:17:41;17.33;;;9.68;;
68192;SDS011;55012;47.562;18.414;2023-04-06T13:20:07;17.42;;;9.23;;
68192;SDS011;55012;47.562;18.414;2023-04-06T13:22:33;20.52;;;9.77;;
68192;SDS011;55012;47.562;18.414;2023-04-06T13:24:58;17.90;;;9.40;;
68192;SDS011;55012;47.562;18.414;2023-04-06T13:27:24;20.90;;;9.98;;
68192;SDS011;55012;47.562;18.414;2023-04-06T13:29:49;17.67;;;9.05;;
68192;SDS011;55012;47.562;18.414;2023-04-06T13:32:15;17.48;;;9.40;;
68192;SDS011;55012;47.562;18.414;2023-04-06T13:34:41;20.65;;;9.27;;
68192;SDS011;55012;47.562;18.414;2023-04-06T13:37:10;15.73;;;8.70;;
68192;SDS011;55012;47.562;18.414;2023-04-06T13:39:37;20.17;;;9.95;;
68192;SDS011;55012;47.562;18.414;2023-04-06T13:42:02;16.50;;;9.30;;
68192;SDS011;55012;47.562;18.414;2023-04-06T13:44:28;17.00;;;9.05;;
68192;SDS011;55012;47.562;18.414;2023-04-06T13:46:54;16.55;;;9.25;;
68192;SDS011;55012;47.562;18.414;2023-04-06T13:49:19;16.20;;;8.85;;
68192;SDS011;55012;47.562;18.414;2023-04-06T13:51:45;18.38;;;9.23;;
68192;SDS011;55012;47.562;18.414;2023-04-06T13:54:10;15.23;;;8.50;;
68192;SDS011;55012;47.562;18.414;2023-04-06T13:56:36;15.25;;;8.75;;
68192;SDS011;55012;47.562;18.414;2023-04-06T13:59:02;19.02;;;9.75;;
68192;SDS011;55012;47.562;18.414;2023-04-06T14:01:28;16.90;;;7.68;;
68192;SDS011;55012;47.562;18.414;2023-04-06T14:03:53;15.70;;;8.93;;
68192;SDS011;55012;47.562;18.414;2023-04-06T14:06:19;15.77;;;8.50;;
68192;SDS011;55012;47.562;18.414;2023-04-06T14:08:44;17.70;;;8.98;;
68192;SDS011;55012;47.562;18.414;2023-04-06T14:11:14;15.45;;;8.10;;
68192;SDS011;55012;47.562;18.414;2023-04-06T14:13:40;18.13;;;8.93;;
68192;SDS011;55012;47.562;18.414;2023-04-06T14:16:05;16.55;;;8.70;;
68192;SDS011;55012;47.562;18.414;2023-04-06T14:18:32;20.50;;;9.38;;
68192;SDS011;55012;47.562;18.414;2023-04-06T14:20:59;17.80;;;9.25;;
68192;SDS011;55012;47.562;18.414;2023-04-06T14:23:26;18.15;;;9.73;;